Aviation Digital Data Service (ADDS)

Output produced by TAFs form (0736 UTC 16 January 2018)
found at http://www.aviationweather.gov/adds/tafs/
 
KEAU 160520Z 1606/1706 33007KT P6SM SCT018 BKN050 
     FM161700 30006KT P6SM FEW018 
     FM170000 25004KT P6SM SCT100
       
KRNH 160520Z 1606/1706 33008KT P6SM SCT018 BKN050 
     FM161600 30007KT P6SM FEW018 
     FM170000 24004KT P6SM SCT100
       
KMSP 160520Z 1606/1712 32012KT P6SM SCT018 BKN050 
     FM161600 30007KT P6SM FEW018 
     FM170000 24004KT P6SM SCT100